Аэропорт: Богашево. Томск

ICAO: UNTT

METAR:
2022-01-28 08:00:00
UNTT 280800Z 18003MPS CAVOK M15/M18 Q1030 R21/490140 NOSIG RMK QFE758
METAR:
2022-01-28 05:00:00
TAF UNTT 280500Z 2806/2815 17003G08MPS 6000 -SHSN BKN016CB TEMPO 2806/2809 2500 -SHSN